sensor_id;sensor_type;location;lat;lon;timestamp;P1;durP1;ratioP1;P2;durP2;ratioP2
55220;SDS011;41089;51.448;6.604;2024-02-26T00:02:42;3.78;;;1.88;;
55220;SDS011;41089;51.448;6.604;2024-02-26T00:08:43;5.13;;;2.40;;
55220;SDS011;41089;51.448;6.604;2024-02-26T00:14:43;3.55;;;2.45;;
55220;SDS011;41089;51.448;6.604;2024-02-26T00:20:46;3.17;;;2.70;;
55220;SDS011;41089;51.448;6.604;2024-02-26T00:26:46;4.38;;;1.92;;
55220;SDS011;41089;51.448;6.604;2024-02-26T00:32:47;3.83;;;2.08;;
55220;SDS011;41089;51.448;6.604;2024-02-26T00:38:47;2.10;;;1.90;;
55220;SDS011;41089;51.448;6.604;2024-02-26T00:44:52;2.67;;;1.58;;
55220;SDS011;41089;51.448;6.604;2024-02-26T00:50:52;4.37;;;3.20;;
55220;SDS011;41089;51.448;6.604;2024-02-26T00:56:53;3.13;;;1.80;;
55220;SDS011;41089;51.448;6.604;2024-02-26T01:02:53;2.10;;;1.93;;
55220;SDS011;41089;51.448;6.604;2024-02-26T01:08:54;3.70;;;2.23;;
55220;SDS011;41089;51.448;6.604;2024-02-26T01:14:54;3.75;;;1.98;;
55220;SDS011;41089;51.448;6.604;2024-02-26T01:20:55;5.82;;;1.70;;
55220;SDS011;41089;51.448;6.604;2024-02-26T01:26:55;4.78;;;2.30;;
55220;SDS011;41089;51.448;6.604;2024-02-26T01:32:55;6.30;;;1.92;;
55220;SDS011;41089;51.448;6.604;2024-02-26T01:38:56;4.70;;;2.13;;
55220;SDS011;41089;51.448;6.604;2024-02-26T01:44:56;4.00;;;2.10;;
55220;SDS011;41089;51.448;6.604;2024-02-26T01:50:57;6.78;;;2.20;;
55220;SDS011;41089;51.448;6.604;2024-02-26T01:56:58;2.25;;;1.73;;
55220;SDS011;41089;51.448;6.604;2024-02-26T02:02:58;5.25;;;2.15;;
55220;SDS011;41089;51.448;6.604;2024-02-26T02:08:59;4.55;;;1.95;;
55220;SDS011;41089;51.448;6.604;2024-02-26T02:15:06;3.22;;;1.80;;
55220;SDS011;41089;51.448;6.604;2024-02-26T02:21:07;2.97;;;1.83;;
55220;SDS011;41089;51.448;6.604;2024-02-26T02:27:07;2.17;;;1.80;;
55220;SDS011;41089;51.448;6.604;2024-02-26T02:33:08;3.88;;;2.25;;
55220;SDS011;41089;51.448;6.604;2024-02-26T02:39:09;3.15;;;2.08;;
55220;SDS011;41089;51.448;6.604;2024-02-26T02:45:10;3.40;;;2.28;;
55220;SDS011;41089;51.448;6.604;2024-02-26T02:51:10;4.10;;;2.20;;
55220;SDS011;41089;51.448;6.604;2024-02-26T02:57:11;3.37;;;2.10;;
55220;SDS011;41089;51.448;6.604;2024-02-26T03:03:11;3.40;;;2.10;;
55220;SDS011;41089;51.448;6.604;2024-02-26T03:09:12;6.20;;;2.50;;
55220;SDS011;41089;51.448;6.604;2024-02-26T03:15:12;4.70;;;2.97;;
55220;SDS011;41089;51.448;6.604;2024-02-26T03:21:12;6.32;;;3.97;;
55220;SDS011;41089;51.448;6.604;2024-02-26T03:27:13;3.60;;;2.67;;
55220;SDS011;41089;51.448;6.604;2024-02-26T03:33:14;7.57;;;3.33;;
55220;SDS011;41089;51.448;6.604;2024-02-26T03:39:15;5.88;;;3.05;;
55220;SDS011;41089;51.448;6.604;2024-02-26T03:45:15;4.57;;;3.23;;
55220;SDS011;41089;51.448;6.604;2024-02-26T03:51:16;5.07;;;2.80;;
55220;SDS011;41089;51.448;6.604;2024-02-26T03:57:17;7.15;;;4.00;;
55220;SDS011;41089;51.448;6.604;2024-02-26T04:03:17;8.73;;;4.47;;
55220;SDS011;41089;51.448;6.604;2024-02-26T04:09:18;5.55;;;3.63;;
55220;SDS011;41089;51.448;6.604;2024-02-26T04:15:19;3.72;;;3.20;;
55220;SDS011;41089;51.448;6.604;2024-02-26T04:21:19;5.85;;;4.05;;
55220;SDS011;41089;51.448;6.604;2024-02-26T04:27:20;6.57;;;3.40;;
55220;SDS011;41089;51.448;6.604;2024-02-26T04:33:20;3.90;;;2.58;;
55220;SDS011;41089;51.448;6.604;2024-02-26T04:39:21;5.13;;;2.90;;
55220;SDS011;41089;51.448;6.604;2024-02-26T04:45:21;4.60;;;2.70;;
55220;SDS011;41089;51.448;6.604;2024-02-26T04:51:21;3.43;;;2.70;;
55220;SDS011;41089;51.448;6.604;2024-02-26T04:57:22;5.82;;;2.90;;
55220;SDS011;41089;51.448;6.604;2024-02-26T05:03:23;6.07;;;4.07;;
55220;SDS011;41089;51.448;6.604;2024-02-26T05:09:23;4.63;;;3.37;;
55220;SDS011;41089;51.448;6.604;2024-02-26T05:15:24;6.90;;;4.13;;
55220;SDS011;41089;51.448;6.604;2024-02-26T05:21:25;4.57;;;2.80;;
55220;SDS011;41089;51.448;6.604;2024-02-26T05:27:26;4.32;;;2.80;;
55220;SDS011;41089;51.448;6.604;2024-02-26T05:33:26;2.60;;;2.38;;
55220;SDS011;41089;51.448;6.604;2024-02-26T05:39:26;2.60;;;2.40;;
55220;SDS011;41089;51.448;6.604;2024-02-26T05:45:27;3.03;;;2.60;;
55220;SDS011;41089;51.448;6.604;2024-02-26T05:51:27;3.67;;;3.03;;
55220;SDS011;41089;51.448;6.604;2024-02-26T05:57:28;4.93;;;3.47;;
55220;SDS011;41089;51.448;6.604;2024-02-26T06:03:29;8.75;;;3.13;;
55220;SDS011;41089;51.448;6.604;2024-02-26T06:09:29;4.25;;;2.92;;
55220;SDS011;41089;51.448;6.604;2024-02-26T06:15:29;4.80;;;3.10;;
55220;SDS011;41089;51.448;6.604;2024-02-26T06:21:30;3.47;;;2.80;;
55220;SDS011;41089;51.448;6.604;2024-02-26T06:27:30;5.47;;;2.70;;
55220;SDS011;41089;51.448;6.604;2024-02-26T06:33:31;7.47;;;3.40;;
55220;SDS011;41089;51.448;6.604;2024-02-26T06:39:31;3.85;;;3.30;;
55220;SDS011;41089;51.448;6.604;2024-02-26T06:45:32;6.72;;;4.22;;
55220;SDS011;41089;51.448;6.604;2024-02-26T06:51:32;10.63;;;4.53;;
55220;SDS011;41089;51.448;6.604;2024-02-26T06:57:34;5.75;;;4.18;;
55220;SDS011;41089;51.448;6.604;2024-02-26T07:03:35;8.43;;;4.30;;
55220;SDS011;41089;51.448;6.604;2024-02-26T07:09:35;6.57;;;3.42;;
55220;SDS011;41089;51.448;6.604;2024-02-26T07:15:36;4.78;;;3.35;;
55220;SDS011;41089;51.448;6.604;2024-02-26T07:21:36;10.70;;;4.53;;
55220;SDS011;41089;51.448;6.604;2024-02-26T07:27:36;5.43;;;3.63;;
55220;SDS011;41089;51.448;6.604;2024-02-26T07:33:37;9.63;;;3.92;;
55220;SDS011;41089;51.448;6.604;2024-02-26T07:39:37;5.82;;;3.67;;
55220;SDS011;41089;51.448;6.604;2024-02-26T07:45:37;7.47;;;3.87;;
55220;SDS011;41089;51.448;6.604;2024-02-26T07:51:38;8.55;;;3.65;;
55220;SDS011;41089;51.448;6.604;2024-02-26T07:57:42;5.57;;;3.20;;
55220;SDS011;41089;51.448;6.604;2024-02-26T08:03:46;5.85;;;3.58;;
55220;SDS011;41089;51.448;6.604;2024-02-26T08:09:49;10.07;;;3.60;;
55220;SDS011;41089;51.448;6.604;2024-02-26T08:15:49;6.63;;;4.68;;
55220;SDS011;41089;51.448;6.604;2024-02-26T08:21:50;5.15;;;3.08;;
55220;SDS011;41089;51.448;6.604;2024-02-26T08:27:50;5.93;;;3.20;;
55220;SDS011;41089;51.448;6.604;2024-02-26T08:33:51;5.50;;;3.77;;
55220;SDS011;41089;51.448;6.604;2024-02-26T08:39:51;3.20;;;2.90;;
55220;SDS011;41089;51.448;6.604;2024-02-26T08:45:52;5.37;;;2.60;;
55220;SDS011;41089;51.448;6.604;2024-02-26T08:51:52;5.53;;;3.10;;
55220;SDS011;41089;51.448;6.604;2024-02-26T08:57:53;3.47;;;2.90;;
55220;SDS011;41089;51.448;6.604;2024-02-26T09:03:53;3.08;;;2.65;;
55220;SDS011;41089;51.448;6.604;2024-02-26T09:09:54;4.60;;;2.57;;
55220;SDS011;41089;51.448;6.604;2024-02-26T09:15:55;4.38;;;2.72;;
55220;SDS011;41089;51.448;6.604;2024-02-26T09:21:55;4.88;;;3.58;;
55220;SDS011;41089;51.448;6.604;2024-02-26T09:27:57;3.55;;;3.13;;
55220;SDS011;41089;51.448;6.604;2024-02-26T09:33:57;4.55;;;3.15;;
55220;SDS011;41089;51.448;6.604;2024-02-26T09:39:58;3.97;;;3.38;;
55220;SDS011;41089;51.448;6.604;2024-02-26T09:45:59;4.10;;;3.00;;
55220;SDS011;41089;51.448;6.604;2024-02-26T09:51:59;3.30;;;2.90;;
55220;SDS011;41089;51.448;6.604;2024-02-26T09:58:02;3.28;;;2.97;;
55220;SDS011;41089;51.448;6.604;2024-02-26T10:04:05;4.28;;;2.88;;
55220;SDS011;41089;51.448;6.604;2024-02-26T10:10:06;5.88;;;2.80;;
55220;SDS011;41089;51.448;6.604;2024-02-26T10:16:06;4.15;;;2.95;;
55220;SDS011;41089;51.448;6.604;2024-02-26T10:22:08;4.50;;;3.20;;
55220;SDS011;41089;51.448;6.604;2024-02-26T10:28:09;5.47;;;3.33;;
55220;SDS011;41089;51.448;6.604;2024-02-26T10:34:09;4.57;;;3.10;;
55220;SDS011;41089;51.448;6.604;2024-02-26T10:40:11;6.93;;;3.97;;
55220;SDS011;41089;51.448;6.604;2024-02-26T10:46:13;7.05;;;5.43;;
55220;SDS011;41089;51.448;6.604;2024-02-26T10:52:14;6.15;;;4.30;;
55220;SDS011;41089;51.448;6.604;2024-02-26T10:58:15;6.43;;;4.72;;
55220;SDS011;41089;51.448;6.604;2024-02-26T11:04:16;7.35;;;5.00;;
55220;SDS011;41089;51.448;6.604;2024-02-26T11:10:17;7.05;;;4.68;;
55220;SDS011;41089;51.448;6.604;2024-02-26T11:16:18;10.73;;;5.38;;
55220;SDS011;41089;51.448;6.604;2024-02-26T11:22:19;8.40;;;5.75;;
55220;SDS011;41089;51.448;6.604;2024-02-26T11:28:22;7.78;;;4.53;;
55220;SDS011;41089;51.448;6.604;2024-02-26T11:34:24;8.65;;;4.90;;
55220;SDS011;41089;51.448;6.604;2024-02-26T11:40:25;7.15;;;5.45;;
55220;SDS011;41089;51.448;6.604;2024-02-26T11:46:26;6.00;;;4.88;;
55220;SDS011;41089;51.448;6.604;2024-02-26T11:52:30;4.10;;;3.70;;
55220;SDS011;41089;51.448;6.604;2024-02-26T11:58:31;10.30;;;5.20;;
55220;SDS011;41089;51.448;6.604;2024-02-26T12:04:31;8.43;;;5.53;;
55220;SDS011;41089;51.448;6.604;2024-02-26T12:10:32;12.63;;;6.35;;
55220;SDS011;41089;51.448;6.604;2024-02-26T12:16:36;9.60;;;6.38;;
55220;SDS011;41089;51.448;6.604;2024-02-26T12:22:39;8.90;;;7.53;;
55220;SDS011;41089;51.448;6.604;2024-02-26T12:28:40;9.82;;;6.35;;
55220;SDS011;41089;51.448;6.604;2024-02-26T12:34:41;8.50;;;6.15;;
55220;SDS011;41089;51.448;6.604;2024-02-26T12:40:41;10.07;;;5.80;;
55220;SDS011;41089;51.448;6.604;2024-02-26T12:46:42;11.20;;;6.75;;
55220;SDS011;41089;51.448;6.604;2024-02-26T12:52:43;6.93;;;5.60;;
55220;SDS011;41089;51.448;6.604;2024-02-26T12:58:45;7.40;;;5.93;;
55220;SDS011;41089;51.448;6.604;2024-02-26T13:04:46;7.00;;;5.75;;
55220;SDS011;41089;51.448;6.604;2024-02-26T13:10:49;8.45;;;5.72;;
55220;SDS011;41089;51.448;6.604;2024-02-26T13:16:54;6.70;;;5.00;;
55220;SDS011;41089;51.448;6.604;2024-02-26T13:23:02;7.03;;;5.93;;
55220;SDS011;41089;51.448;6.604;2024-02-26T13:29:06;6.15;;;5.03;;
55220;SDS011;41089;51.448;6.604;2024-02-26T13:35:10;5.67;;;4.67;;
55220;SDS011;41089;51.448;6.604;2024-02-26T13:41:12;6.72;;;4.47;;
55220;SDS011;41089;51.448;6.604;2024-02-26T13:47:12;5.50;;;4.43;;
55220;SDS011;41089;51.448;6.604;2024-02-26T13:53:14;5.43;;;3.53;;
55220;SDS011;41089;51.448;6.604;2024-02-26T13:59:14;4.55;;;4.05;;
55220;SDS011;41089;51.448;6.604;2024-02-26T14:05:15;4.65;;;4.15;;
55220;SDS011;41089;51.448;6.604;2024-02-26T14:11:15;4.93;;;3.80;;
55220;SDS011;41089;51.448;6.604;2024-02-26T14:17:16;4.45;;;3.67;;
55220;SDS011;41089;51.448;6.604;2024-02-26T14:23:16;6.45;;;3.50;;
55220;SDS011;41089;51.448;6.604;2024-02-26T14:29:16;3.53;;;3.23;;
55220;SDS011;41089;51.448;6.604;2024-02-26T14:35:17;4.80;;;3.83;;
55220;SDS011;41089;51.448;6.604;2024-02-26T14:41:18;5.15;;;4.25;;
55220;SDS011;41089;51.448;6.604;2024-02-26T14:47:18;4.17;;;3.77;;
55220;SDS011;41089;51.448;6.604;2024-02-26T14:53:19;6.32;;;3.83;;
55220;SDS011;41089;51.448;6.604;2024-02-26T14:59:19;4.20;;;3.80;;
55220;SDS011;41089;51.448;6.604;2024-02-26T15:05:19;4.77;;;4.33;;
55220;SDS011;41089;51.448;6.604;2024-02-26T15:11:20;5.25;;;4.47;;
55220;SDS011;41089;51.448;6.604;2024-02-26T15:17:20;6.50;;;4.65;;
55220;SDS011;41089;51.448;6.604;2024-02-26T15:23:21;6.70;;;4.32;;
55220;SDS011;41089;51.448;6.604;2024-02-26T15:29:21;5.70;;;4.95;;
55220;SDS011;41089;51.448;6.604;2024-02-26T15:35:22;8.38;;;5.82;;
55220;SDS011;41089;51.448;6.604;2024-02-26T15:41:22;8.80;;;6.72;;
55220;SDS011;41089;51.448;6.604;2024-02-26T15:47:23;10.25;;;7.43;;
55220;SDS011;41089;51.448;6.604;2024-02-26T15:53:23;8.70;;;7.00;;
55220;SDS011;41089;51.448;6.604;2024-02-26T15:59:24;9.68;;;8.07;;
55220;SDS011;41089;51.448;6.604;2024-02-26T16:05:24;9.57;;;7.80;;
55220;SDS011;41089;51.448;6.604;2024-02-26T16:11:25;11.38;;;8.27;;
55220;SDS011;41089;51.448;6.604;2024-02-26T16:17:30;11.18;;;9.00;;
55220;SDS011;41089;51.448;6.604;2024-02-26T16:23:32;11.82;;;8.15;;
55220;SDS011;41089;51.448;6.604;2024-02-26T16:29:33;13.43;;;9.05;;
55220;SDS011;41089;51.448;6.604;2024-02-26T16:35:34;11.48;;;8.75;;
55220;SDS011;41089;51.448;6.604;2024-02-26T16:41:34;13.63;;;9.40;;
55220;SDS011;41089;51.448;6.604;2024-02-26T16:47:34;10.50;;;8.87;;
55220;SDS011;41089;51.448;6.604;2024-02-26T16:53:36;11.68;;;9.00;;
55220;SDS011;41089;51.448;6.604;2024-02-26T16:59:37;11.07;;;9.13;;
55220;SDS011;41089;51.448;6.604;2024-02-26T17:05:37;9.65;;;8.43;;
55220;SDS011;41089;51.448;6.604;2024-02-26T17:11:37;10.20;;;8.20;;
55220;SDS011;41089;51.448;6.604;2024-02-26T17:17:38;12.32;;;8.05;;
55220;SDS011;41089;51.448;6.604;2024-02-26T17:23:38;10.40;;;8.77;;
55220;SDS011;41089;51.448;6.604;2024-02-26T17:29:39;8.93;;;7.78;;
55220;SDS011;41089;51.448;6.604;2024-02-26T17:35:39;9.60;;;8.60;;
55220;SDS011;41089;51.448;6.604;2024-02-26T17:41:40;11.03;;;8.27;;
55220;SDS011;41089;51.448;6.604;2024-02-26T17:47:41;13.05;;;9.05;;
55220;SDS011;41089;51.448;6.604;2024-02-26T17:53:41;10.13;;;8.63;;
55220;SDS011;41089;51.448;6.604;2024-02-26T17:59:42;12.13;;;8.47;;
55220;SDS011;41089;51.448;6.604;2024-02-26T18:05:42;10.02;;;8.75;;
55220;SDS011;41089;51.448;6.604;2024-02-26T18:11:43;11.23;;;9.35;;
55220;SDS011;41089;51.448;6.604;2024-02-26T18:17:44;15.77;;;10.15;;
55220;SDS011;41089;51.448;6.604;2024-02-26T18:23:46;12.50;;;10.07;;
55220;SDS011;41089;51.448;6.604;2024-02-26T18:29:47;12.50;;;10.02;;
55220;SDS011;41089;51.448;6.604;2024-02-26T18:35:48;11.63;;;9.27;;
55220;SDS011;41089;51.448;6.604;2024-02-26T18:41:48;12.15;;;9.98;;
55220;SDS011;41089;51.448;6.604;2024-02-26T18:47:48;13.55;;;10.30;;
55220;SDS011;41089;51.448;6.604;2024-02-26T18:53:49;15.00;;;12.05;;
55220;SDS011;41089;51.448;6.604;2024-02-26T18:59:49;13.50;;;11.27;;
55220;SDS011;41089;51.448;6.604;2024-02-26T19:05:49;16.02;;;10.93;;
55220;SDS011;41089;51.448;6.604;2024-02-26T19:11:50;12.77;;;10.52;;
55220;SDS011;41089;51.448;6.604;2024-02-26T19:17:52;14.50;;;12.57;;
55220;SDS011;41089;51.448;6.604;2024-02-26T19:23:52;14.75;;;11.60;;
55220;SDS011;41089;51.448;6.604;2024-02-26T19:29:53;13.63;;;11.37;;
55220;SDS011;41089;51.448;6.604;2024-02-26T19:35:53;12.33;;;10.87;;
55220;SDS011;41089;51.448;6.604;2024-02-26T19:41:53;16.87;;;11.97;;
55220;SDS011;41089;51.448;6.604;2024-02-26T19:47:54;15.83;;;12.70;;
55220;SDS011;41089;51.448;6.604;2024-02-26T19:53:54;14.38;;;11.30;;
55220;SDS011;41089;51.448;6.604;2024-02-26T19:59:55;15.10;;;12.57;;
55220;SDS011;41089;51.448;6.604;2024-02-26T20:05:55;16.40;;;11.32;;
55220;SDS011;41089;51.448;6.604;2024-02-26T20:11:55;16.85;;;12.82;;
55220;SDS011;41089;51.448;6.604;2024-02-26T20:17:58;16.48;;;13.93;;
55220;SDS011;41089;51.448;6.604;2024-02-26T20:23:59;17.97;;;13.37;;
55220;SDS011;41089;51.448;6.604;2024-02-26T20:29:59;16.70;;;13.75;;
55220;SDS011;41089;51.448;6.604;2024-02-26T20:35:59;16.77;;;14.35;;
55220;SDS011;41089;51.448;6.604;2024-02-26T20:42:00;16.25;;;13.10;;
55220;SDS011;41089;51.448;6.604;2024-02-26T20:48:00;17.50;;;14.52;;
55220;SDS011;41089;51.448;6.604;2024-02-26T20:54:01;18.65;;;14.98;;
55220;SDS011;41089;51.448;6.604;2024-02-26T21:00:08;18.50;;;15.13;;
55220;SDS011;41089;51.448;6.604;2024-02-26T21:06:12;23.70;;;15.82;;
55220;SDS011;41089;51.448;6.604;2024-02-26T21:12:15;18.25;;;15.00;;
55220;SDS011;41089;51.448;6.604;2024-02-26T21:18:19;21.45;;;17.48;;
55220;SDS011;41089;51.448;6.604;2024-02-26T21:24:20;20.20;;;15.70;;
55220;SDS011;41089;51.448;6.604;2024-02-26T21:30:20;20.23;;;16.00;;
55220;SDS011;41089;51.448;6.604;2024-02-26T21:36:21;19.88;;;16.95;;
55220;SDS011;41089;51.448;6.604;2024-02-26T21:42:21;22.63;;;17.33;;
55220;SDS011;41089;51.448;6.604;2024-02-26T21:48:21;23.87;;;19.20;;
55220;SDS011;41089;51.448;6.604;2024-02-26T21:54:23;24.17;;;20.23;;
55220;SDS011;41089;51.448;6.604;2024-02-26T22:00:27;27.90;;;19.52;;
55220;SDS011;41089;51.448;6.604;2024-02-26T22:06:27;23.53;;;19.87;;
55220;SDS011;41089;51.448;6.604;2024-02-26T22:12:29;25.80;;;20.58;;
55220;SDS011;41089;51.448;6.604;2024-02-26T22:18:29;23.40;;;19.17;;
55220;SDS011;41089;51.448;6.604;2024-02-26T22:24:30;23.95;;;19.52;;
55220;SDS011;41089;51.448;6.604;2024-02-26T22:30:30;24.65;;;19.70;;
55220;SDS011;41089;51.448;6.604;2024-02-26T22:36:31;23.30;;;18.80;;
55220;SDS011;41089;51.448;6.604;2024-02-26T22:42:34;24.17;;;18.60;;
55220;SDS011;41089;51.448;6.604;2024-02-26T22:48:35;23.55;;;18.52;;
55220;SDS011;41089;51.448;6.604;2024-02-26T22:54:35;23.98;;;19.05;;
55220;SDS011;41089;51.448;6.604;2024-02-26T23:00:36;24.00;;;18.83;;
55220;SDS011;41089;51.448;6.604;2024-02-26T23:06:39;26.88;;;20.05;;
55220;SDS011;41089;51.448;6.604;2024-02-26T23:12:41;28.20;;;20.43;;
55220;SDS011;41089;51.448;6.604;2024-02-26T23:18:42;23.13;;;17.85;;
55220;SDS011;41089;51.448;6.604;2024-02-26T23:24:42;26.08;;;20.52;;
55220;SDS011;41089;51.448;6.604;2024-02-26T23:30:42;27.73;;;20.13;;
55220;SDS011;41089;51.448;6.604;2024-02-26T23:36:43;26.40;;;19.57;;
55220;SDS011;41089;51.448;6.604;2024-02-26T23:42:45;23.45;;;19.30;;
55220;SDS011;41089;51.448;6.604;2024-02-26T23:48:45;23.52;;;19.42;;
55220;SDS011;41089;51.448;6.604;2024-02-26T23:54:46;27.40;;;20.43;;
